Time;durP1;ratioP1;P1;durP2;ratioP2;P2;SDS_P1;SDS_P2;PMS_P1;PMS_P2;Temp;Humidity;BMP_temperature;BMP_pressure;BME280_temperature;BME280_humidity;BME280_pressure;Samples;Min_cycle;Max_cycle;Signal;HPM_P1;HPM_P2
2022/06/29 00:02:09;;;;;;;;;;;27.60;79.00;;;;;;6341517;22;19898;-87
2022/06/29 00:04:35;;;;;;;;;;;27.60;79.80;;;;;;6341740;22;19906;-86
2022/06/29 00:07:00;;;;;;;;;;;27.60;79.40;;;;;;6313931;22;19898;-87
2022/06/29 00:09:26;;;;;;;;;;;27.50;79.70;;;;;;6341730;22;19989;-87
2022/06/29 00:11:51;;;;;;;;;;;27.50;79.30;;;;;;6342373;22;19898;-86
2022/06/29 00:14:17;;;;;;;;;;;27.40;79.10;;;;;;6314144;22;19898;-86
2022/06/29 00:16:43;;;;;;;;;;;27.30;79.80;;;;;;6341996;22;19898;-86
2022/06/29 00:19:08;;;;;;;;;;;27.20;78.50;;;;;;6313185;22;19898;-86
2022/06/29 00:21:34;;;;;;;;;;;27.10;78.00;;;;;;6314364;22;19899;-84
2022/06/29 00:23:59;;;;;;;;;;;26.80;78.90;;;;;;6311959;22;19955;-80
2022/06/29 00:26:25;;;;;;;;;;;26.50;80.10;;;;;;6338544;22;19924;-81
2022/06/29 00:28:51;;;;;;;;;;;26.50;80.20;;;;;;6310645;22;19925;-81
2022/06/29 00:31:17;;;;;;;;;;;26.60;79.90;;;;;;6340408;22;20206;-82
2022/06/29 00:33:42;;;;;;;;;;;26.50;79.30;;;;;;6340790;22;19918;-83
2022/06/29 00:36:08;;;;;;;;;;;26.60;80.00;;;;;;6340914;22;20353;-83
2022/06/29 00:38:33;;;;;;;;;;;26.60;79.40;;;;;;6340391;22;19906;-83
2022/06/29 00:40:59;;;;;;;;;;;26.70;78.50;;;;;;6340795;22;19894;-83
2022/06/29 00:43:25;;;;;;;;;;;26.70;78.60;;;;;;6340581;22;20313;-86
2022/06/29 00:45:50;;;;;;;;;;;26.80;78.30;;;;;;6341799;22;19981;-87
2022/06/29 00:48:16;;;;;;;;;;;26.90;78.60;;;;;;6341556;22;19898;-87
2022/06/29 00:50:43;;;;;;;;;;;27.00;77.90;;;;;;6342119;22;19895;-87
2022/06/29 00:53:12;;;;;;;;;;;27.00;77.80;;;;;;6341659;22;19985;-87
2022/06/29 00:55:40;;;;;;;;;;;27.10;77.80;;;;;;6341390;22;19969;-87
2022/06/29 00:58:07;;;;;;;;;;;27.10;77.10;;;;;;6341354;22;19898;-87
2022/06/29 01:00:32;;;;;;;;;;;27.20;77.70;;;;;;6341615;22;19920;-88
2022/06/29 01:02:59;;;;;;;;;;;27.20;77.30;;;;;;6341781;22;19977;-87
2022/06/29 01:05:26;;;;;;;;;;;27.20;76.10;;;;;;6341373;22;20232;-89
2022/06/29 01:07:52;;;;;;;;;;;27.10;75.60;;;;;;6340328;22;19898;-81
2022/06/29 01:10:21;;;;;;;;;;;27.10;74.90;;;;;;6338933;22;20316;-82
2022/06/29 01:12:51;;;;;;;;;;;27.00;76.00;;;;;;6339393;22;20228;-81
2022/06/29 01:15:17;;;;;;;;;;;27.10;76.00;;;;;;6339198;22;19898;-81
2022/06/29 01:17:42;;;;;;;;;;;27.10;75.60;;;;;;6339770;22;19921;-82
2022/06/29 01:20:08;;;;;;;;;;;27.10;75.50;;;;;;6339929;22;19899;-81
2022/06/29 01:22:34;;;;;;;;;;;27.20;75.50;;;;;;6339269;22;19952;-82
2022/06/29 01:24:59;;;;;;;;;;;27.20;75.10;;;;;;6338629;22;20294;-80
2022/06/29 01:27:25;;;;;;;;;;;27.20;74.00;;;;;;6338695;22;19921;-81
2022/06/29 01:29:51;;;;;;;;;;;27.30;74.60;;;;;;6311493;22;19957;-82
2022/06/29 01:32:16;;;;;;;;;;;27.30;73.60;;;;;;6312360;22;19903;-81
2022/06/29 01:34:42;;;;;;;;;;;27.30;72.90;;;;;;6338936;22;20225;-80
2022/06/29 01:37:08;;;;;;;;;;;27.30;72.70;;;;;;6311396;22;19906;-83
2022/06/29 01:39:35;;;;;;;;;;;27.20;71.80;;;;;;6311095;22;19902;-83
2022/06/29 01:42:01;;;;;;;;;;;27.10;71.10;;;;;;6338937;22;20015;-82
2022/06/29 01:44:27;;;;;;;;;;;27.10;72.40;;;;;;6338668;22;19911;-84
2022/06/29 01:46:52;;;;;;;;;;;27.20;71.80;;;;;;6338981;22;19916;-83
2022/06/29 01:49:18;;;;;;;;;;;27.20;71.80;;;;;;6338875;22;20324;-83
2022/06/29 01:51:43;;;;;;;;;;;27.20;71.10;;;;;;6338932;22;19940;-83
2022/06/29 01:54:09;;;;;;;;;;;27.20;71.00;;;;;;6338172;22;19905;-83
2022/06/29 01:56:35;;;;;;;;;;;27.20;70.80;;;;;;6337893;22;19902;-86
2022/06/29 01:59:00;;;;;;;;;;;27.30;70.20;;;;;;6340194;22;19907;-86
2022/06/29 02:01:26;;;;;;;;;;;27.20;69.30;;;;;;6312820;22;19903;-83
2022/06/29 02:03:51;;;;;;;;;;;27.20;69.30;;;;;;6339507;22;19907;-85
2022/06/29 02:06:17;;;;;;;;;;;27.10;69.50;;;;;;6340213;22;19899;-85
2022/06/29 02:08:44;;;;;;;;;;;27.10;69.20;;;;;;6312791;22;20229;-85
2022/06/29 02:11:10;;;;;;;;;;;27.10;68.90;;;;;;6340732;22;20329;-87
2022/06/29 02:13:35;;;;;;;;;;;27.10;68.70;;;;;;6340515;22;19920;-86
2022/06/29 02:16:01;;;;;;;;;;;27.10;69.70;;;;;;6340343;22;20228;-87
2022/06/29 02:18:26;;;;;;;;;;;27.10;69.40;;;;;;6340286;22;19906;-84
2022/06/29 02:20:52;;;;;;;;;;;27.00;69.10;;;;;;6340413;22;20205;-86
2022/06/29 02:23:18;;;;;;;;;;;27.00;69.60;;;;;;6340023;22;19903;-84
2022/06/29 02:25:43;;;;;;;;;;;27.00;69.50;;;;;;6312927;22;19905;-83
2022/06/29 02:28:09;;;;;;;;;;;27.10;69.70;;;;;;6339660;22;19898;-83
2022/06/29 02:36:03;;;;;;;;;;;27.10;69.60;;;;;;6339932;22;19922;-84
2022/06/29 02:38:29;;;;;;;;;;;27.00;69.60;;;;;;6339765;22;19925;-83
2022/06/29 02:40:54;;;;;;;;;;;27.00;69.90;;;;;;6339226;22;20309;-83
2022/06/29 02:43:20;;;;;;;;;;;27.00;70.30;;;;;;6310596;22;19902;-83
2022/06/29 02:45:45;;;;;;;;;;;26.90;70.50;;;;;;6338494;22;19910;-84
2022/06/29 02:48:11;;;;;;;;;;;26.90;71.00;;;;;;6338255;22;19898;-84
2022/06/29 02:50:37;;;;;;;;;;;26.90;70.90;;;;;;6338588;22;19952;-84
2022/06/29 02:53:02;;;;;;;;;;;26.90;71.10;;;;;;6337673;22;19898;-84
2022/06/29 02:55:28;;;;;;;;;;;26.90;71.20;;;;;;6337227;22;20434;-84
2022/06/29 02:57:54;;;;;;;;;;;26.80;70.90;;;;;;6337744;22;19899;-84
2022/06/29 03:00:19;;;;;;;;;;;26.80;71.40;;;;;;6337811;22;19898;-84
2022/06/29 03:02:45;;;;;;;;;;;26.70;71.50;;;;;;6337520;22;19924;-84
2022/06/29 03:05:11;;;;;;;;;;;26.80;71.60;;;;;;6337915;22;19903;-84
2022/06/29 03:07:37;;;;;;;;;;;26.80;71.50;;;;;;6311779;22;19902;-85
2022/06/29 03:10:03;;;;;;;;;;;26.80;71.40;;;;;;6339635;22;19936;-84
2022/06/29 03:12:29;;;;;;;;;;;26.90;71.40;;;;;;6340653;22;19898;-85
2022/06/29 03:14:54;;;;;;;;;;;26.90;71.50;;;;;;6339127;22;19902;-84
2022/06/29 03:17:20;;;;;;;;;;;26.90;71.60;;;;;;6339398;22;20312;-83
2022/06/29 03:19:46;;;;;;;;;;;27.00;71.50;;;;;;6339684;22;19898;-84
2022/06/29 03:22:11;;;;;;;;;;;27.00;71.70;;;;;;6311932;22;19899;-85
2022/06/29 03:24:37;;;;;;;;;;;26.80;72.30;;;;;;6339484;22;19914;-84
2022/06/29 03:27:03;;;;;;;;;;;26.80;72.30;;;;;;6339595;22;19898;-85
2022/06/29 03:29:28;;;;;;;;;;;26.80;72.30;;;;;;6339336;22;19905;-84
2022/06/29 03:31:54;;;;;;;;;;;26.90;72.30;;;;;;6339635;22;20341;-82
2022/06/29 03:34:19;;;;;;;;;;;26.90;73.10;;;;;;6311867;22;19949;-83
2022/06/29 03:36:45;;;;;;;;;;;26.90;73.30;;;;;;6311407;22;20269;-83
2022/06/29 03:39:11;;;;;;;;;;;26.70;73.40;;;;;;6339227;22;19929;-83
2022/06/29 03:41:36;;;;;;;;;;;26.70;73.60;;;;;;6340015;22;19933;-83
2022/06/29 03:44:02;;;;;;;;;;;26.70;74.00;;;;;;6338596;22;19918;-81
2022/06/29 03:46:28;;;;;;;;;;;26.70;74.50;;;;;;6337394;22;19910;-81
2022/06/29 03:48:54;;;;;;;;;;;26.70;74.90;;;;;;6338134;22;19929;-84
2022/06/29 03:51:19;;;;;;;;;;;26.70;75.40;;;;;;6310338;22;20293;-84
2022/06/29 03:53:45;;;;;;;;;;;26.70;75.30;;;;;;6337894;22;20327;-81
2022/06/29 03:56:10;;;;;;;;;;;26.80;75.10;;;;;;6309365;22;20229;-83
2022/06/29 03:58:36;;;;;;;;;;;26.80;75.80;;;;;;6338194;22;20308;-83
2022/06/29 04:01:01;;;;;;;;;;;26.80;75.60;;;;;;6311359;22;19899;-84
2022/06/29 04:03:27;;;;;;;;;;;26.80;76.30;;;;;;6338063;22;19916;-82
2022/06/29 04:05:52;;;;;;;;;;;26.80;76.80;;;;;;6339279;22;19914;-83
2022/06/29 04:08:18;;;;;;;;;;;26.90;76.50;;;;;;6310926;22;19898;-84
2022/06/29 04:10:43;;;;;;;;;;;26.90;77.30;;;;;;6310622;22;19898;-83
2022/06/29 04:13:09;;;;;;;;;;;27.00;76.80;;;;;;6338063;22;19898;-87
2022/06/29 04:15:35;;;;;;;;;;;26.90;77.10;;;;;;6339698;22;19906;-85
2022/06/29 04:18:00;;;;;;;;;;;26.80;77.90;;;;;;6311866;22;19951;-85
2022/06/29 04:21:11;;;;;;;;;;;26.80;77.50;;;;;;6338648;22;19906;-84
2022/06/29 04:23:12;;;;;;;;;;;26.60;78.30;;;;;;6326953;22;19906;-86
2022/06/29 04:25:38;;;;;;;;;;;26.70;77.90;;;;;;6311604;22;19905;-85
2022/06/29 04:28:03;;;;;;;;;;;26.80;78.10;;;;;;6338545;22;19933;-81
2022/06/29 04:30:29;;;;;;;;;;;26.70;77.80;;;;;;6310717;22;19938;-81
2022/06/29 04:32:54;;;;;;;;;;;26.70;78.30;;;;;;6339515;22;20024;-81
2022/06/29 04:35:21;;;;;;;;;;;26.60;78.70;;;;;;6339120;22;19906;-82
2022/06/29 04:37:46;;;;;;;;;;;26.60;78.80;;;;;;6311920;22;19898;-81
2022/06/29 04:40:12;;;;;;;;;;;26.70;78.40;;;;;;6338790;22;19898;-82
2022/06/29 04:42:38;;;;;;;;;;;26.70;78.40;;;;;;6338306;22;19964;-81
2022/06/29 04:45:03;;;;;;;;;;;26.50;78.50;;;;;;6338792;22;19986;-81
2022/06/29 04:47:29;;;;;;;;;;;26.50;78.90;;;;;;6311332;22;19945;-82
2022/06/29 04:49:54;;;;;;;;;;;26.40;78.80;;;;;;6339160;22;19903;-82
2022/06/29 04:52:20;;;;;;;;;;;26.40;78.70;;;;;;6310942;22;19902;-82
2022/06/29 04:54:45;;;;;;;;;;;26.40;79.10;;;;;;6339273;22;19969;-82
2022/06/29 04:57:11;;;;;;;;;;;26.10;79.90;;;;;;6338492;22;19902;-80
2022/06/29 04:59:37;;;;;;;;;;;26.10;79.90;;;;;;6339725;22;20297;-82
2022/06/29 05:02:02;;;;;;;;;;;26.20;79.70;;;;;;6339588;22;19985;-83
2022/06/29 05:04:28;;;;;;;;;;;26.20;79.70;;;;;;6340226;22;20366;-84
2022/06/29 05:06:53;;;;;;;;;;;26.20;79.40;;;;;;6312167;22;19898;-84
2022/06/29 05:09:19;;;;;;;;;;;26.20;78.90;;;;;;6339171;22;20438;-82
2022/06/29 05:11:45;;;;;;;;;;;26.20;78.90;;;;;;6338482;22;19902;-79
2022/06/29 05:14:11;;;;;;;;;;;26.30;78.40;;;;;;6309854;22;19902;-83
2022/06/29 05:16:37;;;;;;;;;;;26.30;78.60;;;;;;6338675;22;19898;-77
2022/06/29 05:19:03;;;;;;;;;;;26.30;77.80;;;;;;6338746;22;19906;-80
2022/06/29 05:21:30;;;;;;;;;;;26.30;78.40;;;;;;6310204;22;19902;-79
2022/06/29 05:23:56;;;;;;;;;;;26.30;77.50;;;;;;6310959;22;19906;-78
2022/06/29 05:26:21;;;;;;;;;;;26.40;77.10;;;;;;6338725;22;19953;-79
2022/06/29 05:28:47;;;;;;;;;;;26.40;77.60;;;;;;6339144;22;19909;-77
2022/06/29 05:31:13;;;;;;;;;;;26.40;76.90;;;;;;6337482;22;19902;-78
2022/06/29 05:33:38;;;;;;;;;;;26.50;77.00;;;;;;6338709;22;20327;-77
2022/06/29 05:36:05;;;;;;;;;;;26.70;77.00;;;;;;6338258;22;20253;-77
2022/06/29 05:38:31;;;;;;;;;;;26.70;76.10;;;;;;6310599;22;19930;-77
2022/06/29 05:40:57;;;;;;;;;;;26.70;76.10;;;;;;6309735;22;19903;-77
2022/06/29 05:43:22;;;;;;;;;;;26.70;76.10;;;;;;6337490;22;19913;-77
2022/06/29 05:45:48;;;;;;;;;;;26.70;76.40;;;;;;6338578;22;19917;-76
2022/06/29 05:48:13;;;;;;;;;;;26.70;76.50;;;;;;6335541;22;19899;-76
2022/06/29 05:50:39;;;;;;;;;;;26.70;76.20;;;;;;6336315;22;19956;-76
2022/06/29 05:53:05;;;;;;;;;;;26.50;76.40;;;;;;6332994;22;19910;-76
2022/06/29 05:55:30;;;;;;;;;;;26.30;77.30;;;;;;6337979;22;19899;-76
2022/06/29 05:57:56;;;;;;;;;;;26.40;77.40;;;;;;6310565;22;19899;-76
2022/06/29 06:00:21;;;;;;;;;;;26.50;77.50;;;;;;6337812;22;19898;-77
2022/06/29 06:02:47;;;;;;;;;;;26.50;77.10;;;;;;6338505;22;19909;-76
2022/06/29 06:05:12;;;;;;;;;;;26.60;77.00;;;;;;6311685;22;20005;-78
2022/06/29 06:07:38;;;;;;;;;;;26.60;76.60;;;;;;6338086;22;19899;-78
2022/06/29 06:10:04;;;;;;;;;;;26.60;76.60;;;;;;6308072;22;19989;-76
2022/06/29 06:12:30;;;;;;;;;;;26.60;76.60;;;;;;6338823;22;19902;-76
2022/06/29 06:15:00;;;;;;;;;;;26.60;76.10;;;;;;6311794;22;19902;-82
2022/06/29 06:17:28;;;;;;;;;;;26.60;75.40;;;;;;6338672;22;19946;-76
2022/06/29 06:19:54;;;;;;;;;;;26.70;76.20;;;;;;6338757;22;19899;-76
2022/06/29 06:22:20;;;;;;;;;;;26.70;75.40;;;;;;6339277;22;20024;-76
2022/06/29 06:24:46;;;;;;;;;;;26.80;75.20;;;;;;6338434;22;19902;-76
2022/06/29 06:27:12;;;;;;;;;;;26.70;75.10;;;;;;6337901;22;19905;-76
2022/06/29 06:29:37;;;;;;;;;;;26.70;75.10;;;;;;6308255;22;20221;-76
2022/06/29 06:32:04;;;;;;;;;;;26.80;75.60;;;;;;6335141;22;19899;-76
2022/06/29 06:34:30;;;;;;;;;;;26.80;74.40;;;;;;6332877;22;20209;-75
2022/06/29 06:36:55;;;;;;;;;;;26.80;74.40;;;;;;6335923;22;19906;-77
2022/06/29 06:39:21;;;;;;;;;;;26.80;75.00;;;;;;6332388;22;20320;-77
2022/06/29 06:41:46;;;;;;;;;;;26.80;75.00;;;;;;6306400;22;19948;-77
2022/06/29 06:44:12;;;;;;;;;;;26.80;74.80;;;;;;6337294;22;20039;-81
2022/06/29 06:46:37;;;;;;;;;;;26.90;74.80;;;;;;6336388;22;19902;-79
2022/06/29 06:49:03;;;;;;;;;;;26.90;75.00;;;;;;6309824;22;19898;-78
2022/06/29 06:51:29;;;;;;;;;;;26.90;74.20;;;;;;6309588;22;19906;-78
2022/06/29 06:53:54;;;;;;;;;;;26.90;73.50;;;;;;6338367;22;19905;-78
2022/06/29 06:56:20;;;;;;;;;;;26.80;74.10;;;;;;6338798;22;19963;-79
2022/06/29 06:58:46;;;;;;;;;;;26.90;74.10;;;;;;6310956;22;19990;-78
2022/06/29 07:01:11;;;;;;;;;;;26.90;74.70;;;;;;6337377;22;19910;-78
2022/06/29 07:03:37;;;;;;;;;;;27.00;75.20;;;;;;6338243;22;19911;-77
2022/06/29 07:06:05;;;;;;;;;;;27.00;75.10;;;;;;6339207;22;19898;-77
2022/06/29 07:08:32;;;;;;;;;;;27.00;74.80;;;;;;6338763;22;19898;-78
2022/06/29 07:10:58;;;;;;;;;;;27.10;73.60;;;;;;6337904;22;19902;-77
2022/06/29 07:13:32;;;;;;;;;;;27.20;74.00;;;;;;6309644;22;19899;-77
2022/06/29 07:16:09;;;;;;;;;;;27.30;74.00;;;;;;6309265;22;19902;-77
2022/06/29 07:18:36;;;;;;;;;;;27.40;74.10;;;;;;6309128;22;19910;-78
2022/06/29 07:21:02;;;;;;;;;;;27.40;73.60;;;;;;6302260;22;19898;-78
2022/06/29 07:23:28;;;;;;;;;;;27.50;73.80;;;;;;6334365;22;20340;-77
2022/06/29 07:25:54;;;;;;;;;;;27.50;73.70;;;;;;6335035;22;20227;-79
2022/06/29 07:28:20;;;;;;;;;;;27.60;73.30;;;;;;6307320;22;19917;-77
2022/06/29 07:30:46;;;;;;;;;;;27.70;73.20;;;;;;6335292;22;19942;-78
2022/06/29 07:33:11;;;;;;;;;;;27.70;72.40;;;;;;6335467;22;19902;-77
2022/06/29 07:35:37;;;;;;;;;;;27.80;72.70;;;;;;6336403;22;19942;-77
2022/06/29 07:38:03;;;;;;;;;;;27.90;72.70;;;;;;6336754;22;19922;-78
2022/06/29 07:40:29;;;;;;;;;;;27.90;72.70;;;;;;6307806;22;19899;-78
2022/06/29 07:42:55;;;;;;;;;;;28.00;72.70;;;;;;6307778;22;20296;-78
2022/06/29 07:45:21;;;;;;;;;;;28.10;73.00;;;;;;6336756;22;19936;-78
2022/06/29 07:47:48;;;;;;;;;;;28.10;72.50;;;;;;6337291;22;19903;-79
2022/06/29 07:50:13;;;;;;;;;;;28.20;71.70;;;;;;6308105;22;19907;-78
2022/06/29 07:52:40;;;;;;;;;;;28.20;72.00;;;;;;6336828;22;19902;-79
2022/06/29 07:55:07;;;;;;;;;;;28.30;72.00;;;;;;6336972;22;19906;-78
2022/06/29 07:57:33;;;;;;;;;;;28.30;71.70;;;;;;6309155;22;19906;-78
2022/06/29 07:59:58;;;;;;;;;;;28.30;71.60;;;;;;6334411;22;19906;-77
2022/06/29 08:02:24;;;;;;;;;;;28.40;71.30;;;;;;6335590;22;19984;-78
2022/06/29 08:04:49;;;;;;;;;;;28.50;71.40;;;;;;6335187;22;19989;-75
2022/06/29 08:07:15;;;;;;;;;;;28.60;70.70;;;;;;6336244;22;19902;-75
2022/06/29 08:09:40;;;;;;;;;;;28.50;70.40;;;;;;6336591;22;19930;-75
2022/06/29 08:12:08;;;;;;;;;;;28.60;70.90;;;;;;6337345;22;19943;-77
2022/06/29 08:14:33;;;;;;;;;;;28.70;71.60;;;;;;6337253;22;19898;-77
2022/06/29 08:16:59;;;;;;;;;;;28.80;71.20;;;;;;6336830;22;19905;-78
2022/06/29 08:19:24;;;;;;;;;;;28.90;71.20;;;;;;6337355;22;19955;-76
2022/06/29 08:21:50;;;;;;;;;;;28.80;69.70;;;;;;6337450;22;20232;-76
2022/06/29 08:24:15;;;;;;;;;;;28.80;70.80;;;;;;6336522;22;20425;-76
2022/06/29 08:26:42;;;;;;;;;;;28.90;70.80;;;;;;6336436;22;19902;-75
2022/06/29 08:29:07;;;;;;;;;;;28.90;70.20;;;;;;6336611;22;19953;-75
2022/06/29 08:31:33;;;;;;;;;;;28.90;70.20;;;;;;6337008;22;19902;-76
2022/06/29 08:33:59;;;;;;;;;;;28.90;69.60;;;;;;6309306;22;19898;-76
2022/06/29 08:36:25;;;;;;;;;;;28.90;70.10;;;;;;6309836;22;19906;-76
2022/06/29 08:38:50;;;;;;;;;;;29.00;70.30;;;;;;6338472;22;19898;-78
2022/06/29 08:41:16;;;;;;;;;;;29.00;69.50;;;;;;6336677;22;20353;-78
2022/06/29 08:43:42;;;;;;;;;;;29.00;70.10;;;;;;6336843;22;19981;-77
2022/06/29 08:46:10;;;;;;;;;;;29.00;70.40;;;;;;6309151;22;19933;-77
2022/06/29 08:48:36;;;;;;;;;;;29.10;70.60;;;;;;6337998;22;20178;-77
2022/06/29 08:51:03;;;;;;;;;;;29.10;70.50;;;;;;6309232;22;19909;-78
2022/06/29 08:53:28;;;;;;;;;;;29.10;69.80;;;;;;6336197;22;19898;-76
2022/06/29 08:55:55;;;;;;;;;;;29.00;70.30;;;;;;6338900;22;20218;-79
2022/06/29 08:58:22;;;;;;;;;;;29.10;70.80;;;;;;6338119;22;19922;-78
2022/06/29 09:00:53;;;;;;;;;;;29.10;70.40;;;;;;6308871;22;19906;-75
2022/06/29 09:03:19;;;;;;;;;;;29.20;70.30;;;;;;6308145;22;19933;-75
2022/06/29 09:05:45;;;;;;;;;;;29.20;69.90;;;;;;6337451;22;20228;-77
2022/06/29 09:08:11;;;;;;;;;;;29.10;70.20;;;;;;6337496;22;19944;-77
2022/06/29 09:10:36;;;;;;;;;;;29.20;70.60;;;;;;6338465;22;20278;-74
2022/06/29 09:13:04;;;;;;;;;;;29.30;70.80;;;;;;6337560;22;19902;-75
2022/06/29 09:15:34;;;;;;;;;;;29.40;70.40;;;;;;6310865;22;19902;-73
2022/06/29 09:18:00;;;;;;;;;;;29.50;70.20;;;;;;6337836;22;19902;-74
2022/06/29 09:20:39;;;;;;;;;;;29.60;71.00;;;;;;6338265;22;20263;-74
2022/06/29 09:23:07;;;;;;;;;;;29.70;70.50;;;;;;6337883;22;19899;-73
2022/06/29 09:25:33;;;;;;;;;;;29.80;69.60;;;;;;6337746;22;19899;-73
2022/06/29 09:27:58;;;;;;;;;;;29.90;69.20;;;;;;6338732;22;19922;-74
2022/06/29 09:30:26;;;;;;;;;;;29.90;69.40;;;;;;6337384;22;20009;-74
2022/06/29 09:33:04;;;;;;;;;;;30.00;68.30;;;;;;6309560;22;20487;-74
2022/06/29 09:35:30;;;;;;;;;;;30.00;67.30;;;;;;6336444;22;19898;-74
2022/06/29 09:38:14;;;;;;;;;;;30.00;67.70;;;;;;6335241;22;19909;-73
2022/06/29 09:40:58;;;;;;;;;;;30.00;67.10;;;;;;6338416;22;19898;-73
2022/06/29 09:43:24;;;;;;;;;;;30.10;67.90;;;;;;6336982;22;22728;-74
2022/06/29 09:45:51;;;;;;;;;;;30.20;68.20;;;;;;6336273;22;19914;-73
2022/06/29 09:48:18;;;;;;;;;;;30.30;66.30;;;;;;6336894;22;19906;-74
2022/06/29 09:50:44;;;;;;;;;;;30.30;66.90;;;;;;6337706;22;19944;-74
2022/06/29 09:53:10;;;;;;;;;;;30.30;66.00;;;;;;6310209;22;19935;-73
2022/06/29 09:55:36;;;;;;;;;;;30.40;66.80;;;;;;6337221;22;20027;-73
2022/06/29 09:58:03;;;;;;;;;;;30.50;66.20;;;;;;6309581;22;19938;-74
2022/06/29 10:03:18;;;;;;;;;;;30.70;65.50;;;;;;6337985;22;19906;-78
2022/06/29 10:05:59;;;;;;;;;;;30.70;64.70;;;;;;6311133;22;20439;-77
2022/06/29 10:08:26;;;;;;;;;;;30.80;65.80;;;;;;6312197;22;19902;-74
2022/06/29 10:10:56;;;;;;;;;;;30.90;65.10;;;;;;6348538;22;19898;-83
2022/06/29 10:13:41;;;;;;;;;;;30.90;64.30;;;;;;6320424;22;19899;-82
2022/06/29 10:16:07;;;;;;;;;;;30.90;64.30;;;;;;6318824;22;19898;-77
2022/06/29 10:19:08;;;;;;;;;;;30.90;64.40;;;;;;6345712;22;19909;-77
2022/06/29 10:21:34;;;;;;;;;;;31.00;65.70;;;;;;6247796;23;20223;-74
2022/06/29 10:24:00;;;;;;;;;;;31.20;65.80;;;;;;6303271;22;19951;-75
2022/06/29 10:29:09;;;;;;;;;;;31.40;65.90;;;;;;6338839;22;19902;-78
2022/06/29 10:31:50;;;;;;;;;;;31.60;65.60;;;;;;6337803;22;19902;-77
2022/06/29 10:34:31;;;;;;;;;;;31.70;65.50;;;;;;6335999;22;19902;-78
2022/06/29 10:37:02;;;;;;;;;;;31.80;65.40;;;;;;6335972;22;19971;-82
2022/06/29 10:39:46;;;;;;;;;;;32.00;64.80;;;;;;6336543;22;20250;-81
2022/06/29 10:45:15;;;;;;;;;;;32.30;64.30;;;;;;6337034;22;20274;-81
2022/06/29 10:47:48;;;;;;;;;;;32.40;64.00;;;;;;6308779;22;19914;-77
2022/06/29 10:50:13;;;;;;;;;;;32.40;63.90;;;;;;6309491;22;19974;-76
2022/06/29 10:52:39;;;;;;;;;;;32.50;64.20;;;;;;6337488;22;19930;-77
2022/06/29 10:55:05;;;;;;;;;;;32.60;62.30;;;;;;6338030;22;19910;-77
2022/06/29 10:57:33;;;;;;;;;;;32.70;63.20;;;;;;6337803;22;19943;-76
2022/06/29 10:59:58;;;;;;;;;;;32.80;63.00;;;;;;6337874;22;19898;-76
2022/06/29 11:02:24;;;;;;;;;;;32.90;61.80;;;;;;6335924;22;20740;-78
2022/06/29 11:04:49;;;;;;;;;;;33.00;61.60;;;;;;6309164;22;19981;-78
2022/06/29 11:12:53;;;;;;;;;;;33.10;62.80;;;;;;6337982;22;20358;-78
2022/06/29 11:15:41;;;;;;;;;;;33.20;61.70;;;;;;6337836;22;19903;-80
2022/06/29 11:18:11;;;;;;;;;;;33.30;61.30;;;;;;6336819;22;19902;-80
2022/06/29 11:20:38;;;;;;;;;;;33.40;62.50;;;;;;6334838;22;19909;-78
2022/06/29 11:23:07;;;;;;;;;;;33.60;62.30;;;;;;6336598;22;19898;-77
2022/06/29 11:25:39;;;;;;;;;;;33.80;60.50;;;;;;6335420;22;19902;-77
2022/06/29 11:28:05;;;;;;;;;;;34.00;60.70;;;;;;6308919;22;19956;-79
2022/06/29 11:30:31;;;;;;;;;;;34.20;60.50;;;;;;6338048;22;19946;-79
2022/06/29 11:32:57;;;;;;;;;;;34.30;59.00;;;;;;6308437;22;19899;-81
2022/06/29 11:35:25;;;;;;;;;;;34.60;59.10;;;;;;6306898;22;19954;-77
2022/06/29 11:37:51;;;;;;;;;;;34.90;58.20;;;;;;6337881;22;19905;-80
2022/06/29 11:40:18;;;;;;;;;;;35.30;58.70;;;;;;6336437;22;20236;-80
2022/06/29 11:45:44;;;;;;;;;;;35.80;55.60;;;;;;6338238;22;20343;-78
2022/06/29 11:48:12;;;;;;;;;;;36.00;56.10;;;;;;6338088;22;19899;-80
2022/06/29 11:50:48;;;;;;;;;;;36.30;55.30;;;;;;6310949;22;19903;-78
2022/06/29 11:53:36;;;;;;;;;;;36.20;55.10;;;;;;6310437;22;19898;-78
2022/06/29 11:56:06;;;;;;;;;;;36.20;54.40;;;;;;6295025;22;20289;-80
2022/06/29 11:58:32;;;;;;;;;;;36.20;54.80;;;;;;6336524;22;20187;-79
2022/06/29 12:00:57;;;;;;;;;;;36.50;55.40;;;;;;6309873;22;19964;-80
2022/06/29 12:03:23;;;;;;;;;;;36.50;53.50;;;;;;6336990;22;19902;-81
2022/06/29 12:05:56;;;;;;;;;;;36.30;53.20;;;;;;6337680;22;19899;-80
2022/06/29 12:08:21;;;;;;;;;;;36.30;53.40;;;;;;6336935;22;20005;-81
2022/06/29 12:10:47;;;;;;;;;;;36.20;53.50;;;;;;6337388;22;19933;-81
2022/06/29 12:13:12;;;;;;;;;;;36.00;53.40;;;;;;6337873;22;20369;-77
2022/06/29 12:15:38;;;;;;;;;;;35.70;53.90;;;;;;6310265;22;19898;-77
2022/06/29 12:18:04;;;;;;;;;;;35.30;54.40;;;;;;6336909;22;19921;-77
2022/06/29 12:20:29;;;;;;;;;;;35.00;54.90;;;;;;6337881;22;19898;-80
2022/06/29 12:22:55;;;;;;;;;;;34.70;56.10;;;;;;6337774;22;19951;-80
2022/06/29 12:25:22;;;;;;;;;;;34.20;56.60;;;;;;6309451;22;19902;-78
2022/06/29 12:27:48;;;;;;;;;;;33.90;57.50;;;;;;6308986;22;19909;-79
2022/06/29 12:30:13;;;;;;;;;;;33.50;59.60;;;;;;6337125;22;19899;-79
2022/06/29 12:32:39;;;;;;;;;;;32.70;61.80;;;;;;6310635;22;19898;-77
2022/06/29 12:35:05;;;;;;;;;;;30.00;69.90;;;;;;6309898;22;19902;-78
2022/06/29 12:37:31;;;;;;;;;;;28.40;74.80;;;;;;6336435;22;19922;-81
2022/06/29 12:39:56;;;;;;;;;;;27.80;78.10;;;;;;6338591;22;19903;-79
2022/06/29 12:42:22;;;;;;;;;;;27.40;80.70;;;;;;6337038;22;19968;-78
2022/06/29 12:44:48;;;;;;;;;;;26.90;82.80;;;;;;6336532;22;19918;-75
2022/06/29 12:47:15;;;;;;;;;;;26.00;90.30;;;;;;6335856;22;20237;-75
2022/06/29 12:49:41;;;;;;;;;;;26.40;90.70;;;;;;6337638;22;19898;-78
2022/06/29 12:52:07;;;;;;;;;;;25.70;91.80;;;;;;6337061;22;19902;-75
2022/06/29 12:54:32;;;;;;;;;;;25.10;92.90;;;;;;6310342;22;19898;-76
2022/06/29 12:56:58;;;;;;;;;;;25.00;96.10;;;;;;6310170;22;19899;-76
2022/06/29 12:59:23;;;;;;;;;;;25.40;96.50;;;;;;6337486;22;19903;-76
2022/06/29 13:01:51;;;;;;;;;;;25.80;95.30;;;;;;6338208;22;20240;-82
2022/06/29 13:04:17;;;;;;;;;;;26.10;94.70;;;;;;6337478;22;19902;-82
2022/06/29 13:06:43;;;;;;;;;;;26.40;93.30;;;;;;6337459;22;19899;-82
2022/06/29 13:09:08;;;;;;;;;;;26.70;92.70;;;;;;6308004;22;20351;-82
2022/06/29 13:11:35;;;;;;;;;;;26.90;91.90;;;;;;6338012;22;19899;-83
2022/06/29 13:14:00;;;;;;;;;;;27.10;92.30;;;;;;6335539;22;20327;-81
2022/06/29 13:16:27;;;;;;;;;;;27.20;90.90;;;;;;6337360;22;19905;-82
2022/06/29 13:18:56;;;;;;;;;;;27.30;91.40;;;;;;6310180;22;19898;-82
2022/06/29 13:21:22;;;;;;;;;;;27.40;90.80;;;;;;6308816;22;19942;-83
2022/06/29 13:23:47;;;;;;;;;;;27.50;91.20;;;;;;6310437;22;20348;-82
2022/06/29 13:26:13;;;;;;;;;;;27.60;90.80;;;;;;6337130;22;20309;-82
2022/06/29 13:28:43;;;;;;;;;;;28.00;90.50;;;;;;6308228;22;20324;-81
2022/06/29 13:31:09;;;;;;;;;;;28.60;91.30;;;;;;6337433;22;20259;-81
2022/06/29 13:36:49;;;;;;;12.93;6.05;;;29.10;88.30;;;;;;5053179;28;20430;-76
2022/06/29 13:39:14;;;;;;;10.80;6.07;;;29.30;87.60;;;;;;5049519;28;20575;-76
2022/06/29 13:41:40;;;;;;;15.52;5.30;;;29.40;86.10;;;;;;5046515;28;20423;-80
2022/06/29 13:44:06;;;;;;;7.38;4.30;;;29.60;87.80;;;;;;5048211;28;20497;-76
2022/06/29 13:46:32;;;;;;;12.55;5.50;;;30.10;86.80;;;;;;5050994;28;20096;-77
2022/06/29 13:48:58;;;;;;;16.55;5.75;;;30.50;81.90;;;;;;5050916;28;20106;-77
2022/06/29 13:51:23;;;;;;;9.48;5.05;;;30.90;80.90;;;;;;5048144;28;20626;-77
2022/06/29 13:53:49;;;;;;;11.68;4.55;;;31.30;81.10;;;;;;5052638;28;20128;-76
2022/06/29 13:56:15;;;;;;;13.05;4.47;;;31.60;80.50;;;;;;5048134;28;20039;-76
2022/06/29 13:58:41;;;;;;;12.13;5.20;;;31.90;79.20;;;;;;5050181;28;20122;-76
2022/06/29 14:01:06;;;;;;;11.18;5.32;;;31.90;76.90;;;;;;5048942;28;20099;-77
2022/06/29 14:03:32;;;;;;;8.38;5.18;;;32.00;76.50;;;;;;5055134;28;20064;-77
2022/06/29 14:05:58;;;;;;;9.77;4.65;;;31.80;76.40;;;;;;5046235;28;20025;-77
2022/06/29 14:08:23;;;;;;;9.82;4.57;;;31.70;76.80;;;;;;5044310;28;20037;-78
2022/06/29 14:10:49;;;;;;;10.35;5.32;;;31.80;77.40;;;;;;5057945;28;20470;-77
2022/06/29 14:13:15;;;;;;;16.17;5.97;;;31.80;77.20;;;;;;5056042;28;20577;-77
2022/06/29 14:15:43;;;;;;;10.55;4.05;;;31.80;77.30;;;;;;5056028;28;20031;-76
2022/06/29 14:18:09;;;;;;;15.70;4.70;;;31.90;76.70;;;;;;5047656;28;20028;-78
2022/06/29 14:20:36;;;;;;;14.55;4.70;;;31.80;76.20;;;;;;5051691;28;20021;-79
2022/06/29 14:23:02;;;;;;;11.38;4.00;;;31.80;75.90;;;;;;5053202;28;20385;-78
2022/06/29 14:25:29;;;;;;;9.98;4.18;;;31.90;75.20;;;;;;5057774;28;20037;-78
2022/06/29 14:27:56;;;;;;;9.95;4.38;;;31.80;75.10;;;;;;5059251;28;20116;-77
2022/06/29 14:30:23;;;;;;;9.98;4.38;;;31.80;75.20;;;;;;5044013;28;20037;-79
2022/06/29 14:32:48;;;;;;;8.82;4.07;;;31.80;75.70;;;;;;5059257;28;20056;-77